Time;durP1;ratioP1;P1;durP2;ratioP2;P2;SDS_P1;SDS_P2;PMS_P1;PMS_P2;Temp;Humidity;BMP_temperature;BMP_pressure;BME280_temperature;BME280_humidity;BME280_pressure;Samples;Min_cycle;Max_cycle;Signal;HPM_P1;HPM_P2
2023/11/26 00:01:00;;;;;;;;;;;;;;;;;;5078744;28;20020;-63
2023/11/26 00:03:28;;;;;;;;;;;;;;;;;;5078340;28;19942;-66
2023/11/26 00:05:55;;;;;;;;;;;;;;;;;;5083841;28;19978;-61
2023/11/26 00:08:21;;;;;;;;;;;;;;;;;;5076947;28;20388;-60
2023/11/26 00:10:47;;;;;;;;;;;;;;;;;;5076742;28;19995;-61
2023/11/26 00:13:14;;;;;;;;;;;;;;;;;;5085369;28;19929;-59
2023/11/26 00:15:41;;;;;;;;;;;;;;;;;;5085833;28;19924;-61
2023/11/26 00:18:06;;;;;;;;;;;;;;;;;;5082063;28;19924;-59
2023/11/26 00:20:34;;;;;;;;;;;;;;;;;;5078234;28;20342;-60
2023/11/26 00:23:01;;;;;;;;;;;;;;;;;;5075487;28;20015;-61
2023/11/26 00:25:27;;;;;;;;;;;;;;;;;;5075156;28;19924;-60
2023/11/26 00:27:54;;;;;;;;;;;;;;;;;;5082530;28;20390;-59
2023/11/26 00:30:20;;;;;;;;;;;;;;;;;;5074165;28;20391;-61
2023/11/26 00:32:47;;;;;;;;;;;;;;;;;;5089751;28;20001;-60
2023/11/26 00:35:13;;;;;;;;;;;;;;;;;;5085872;28;20069;-59
2023/11/26 00:37:41;;;;;;;;;;;;;;;;;;5083505;28;20035;-61
2023/11/26 00:40:09;;;;;;;;;;;;;;;;;;5079914;28;19936;-59
2023/11/26 00:42:35;;;;;;;;;;;;;;;;;;5085356;28;19932;-60
2023/11/26 00:45:02;;;;;;;;;;;;;;;;;;5084273;28;19964;-61
2023/11/26 00:47:29;;;;;;;;;;;;;;;;;;5081608;28;19932;-61
2023/11/26 00:49:58;;;;;;;;;;;;;;;;;;5074000;28;19964;-61
2023/11/26 00:52:24;;;;;;;;;;;;;;;;;;5077049;28;19975;-61
2023/11/26 00:54:52;;;;;;;;;;;;;;;;;;5082051;28;20339;-61
2023/11/26 00:57:19;;;;;;;;;;;;;;;;;;5082460;28;19925;-60
2023/11/26 00:59:45;;;;;;;;;;;;;;;;;;5075668;28;20015;-62
2023/11/26 01:02:12;;;;;;;;;;;;;;;;;;5078684;28;19970;-61
2023/11/26 01:04:38;;;;;;;;;;;;;;;;;;5082246;28;20011;-59
2023/11/26 01:07:05;;;;;;;;;;;;;;;;;;5079842;28;20395;-60
2023/11/26 01:09:32;;;;;;;;;;;;;;;;;;5090556;28;19924;-61
2023/11/26 01:12:00;;;;;;;;;;;;;;;;;;5094872;28;19970;-59
2023/11/26 01:14:26;;;;;;;;;;;;;;;;;;5091931;28;20346;-60
2023/11/26 01:16:53;;;;;;;;;;;;;;;;;;5084602;28;20327;-62
2023/11/26 01:19:19;;;;;;;;;;;;;;;;;;5093309;28;20015;-63
2023/11/26 01:21:46;;;;;;;;;;;;;;;;;;5079402;28;20417;-62
2023/11/26 01:24:12;;;;;;;;;;;;;;;;;;5078912;28;19978;-61
2023/11/26 01:26:39;;;;;;;;;;;;;;;;;;5091044;28;20046;-59
2023/11/26 01:29:07;;;;;;;;;;;;;;;;;;5085039;28;20349;-62
2023/11/26 01:31:33;;;;;;;;;;;;;;;;;;5085038;28;20453;-60
2023/11/26 01:34:00;;;;;;;;;;;;;;;;;;5084426;28;20337;-64
2023/11/26 01:36:27;;;;;;;;;;;;;;;;;;5085539;28;19969;-58
2023/11/26 01:38:53;;;;;;;;;;;;;;;;;;5073797;28;20057;-62
2023/11/26 01:41:19;;;;;;;;;;;;;;;;;;5093837;28;19971;-61
2023/11/26 01:43:46;;;;;;;;;;;;;;;;;;5095473;28;19987;-61
2023/11/26 01:46:15;;;;;;;;;;;;;;;;;;5091040;28;19986;-59
2023/11/26 01:48:42;;;;;;;;;;;;;;;;;;5071878;28;19932;-61
2023/11/26 01:51:10;;;;;;;;;;;;;;;;;;5078913;28;19931;-61
2023/11/26 01:53:37;;;;;;;;;;;;;;;;;;5092277;28;19924;-61
2023/11/26 01:56:04;;;;;;;;;;;;;;;;;;5083629;28;19986;-61
2023/11/26 01:58:31;;;;;;;;;;;;;;;;;;5089169;28;19971;-61
2023/11/26 02:00:57;;;;;;;;;;;;;;;;;;5090049;28;20362;-59
2023/11/26 02:03:25;;;;;;;;;;;;;;;;;;5083531;28;19967;-61
2023/11/26 02:05:52;;;;;;;;;;;;;;;;;;5088557;28;20015;-61
2023/11/26 02:08:20;;;;;;;;;;;;;;;;;;5072206;28;19978;-60
2023/11/26 02:10:47;;;;;;;;;;;;;;;;;;5088584;28;19924;-60
2023/11/26 02:13:13;;;;;;;;;;;;;;;;;;5083890;28;19964;-61
2023/11/26 02:15:40;;;;;;;;;;;;;;;;;;5089258;28;19931;-60
2023/11/26 02:18:07;;;;;;;;;;;;;;;;;;5084077;28;19968;-60
2023/11/26 02:20:35;;;;;;;;;;;;;;;;;;5079602;28;19925;-59
2023/11/26 02:23:03;;;;;;;;;;;;;;;;;;5083943;28;19963;-62
2023/11/26 02:25:31;;;;;;;;;;;;;;;;;;5074690;28;19924;-60
2023/11/26 02:27:59;;;;;;;;;;;;;;;;;;5075147;28;19925;-61
2023/11/26 02:30:25;;;;;;;;;;;;;;;;;;5082814;28;19924;-60
2023/11/26 02:32:52;;;;;;;;;;;;;;;;;;5092705;28;20015;-61
2023/11/26 02:35:19;;;;;;;;;;;;;;;;;;5098820;28;19928;-60
2023/11/26 02:37:47;;;;;;;;;;;;;;;;;;5099050;28;19924;-60
2023/11/26 02:40:15;;;;;;;;;;;;;;;;;;5096968;28;19924;-59
2023/11/26 02:42:43;;;;;;;;;;;;;;;;;;5099198;28;19924;-60
2023/11/26 02:45:10;;;;;;;;;;;;;;;;;;5080756;28;19967;-60
2023/11/26 02:47:36;;;;;;;;;;;;;;;;;;5097929;28;19924;-61
2023/11/26 02:50:04;;;;;;;;;;;;;;;;;;5098468;28;20333;-60
2023/11/26 02:52:30;;;;;;;;;;;;;;;;;;5098617;28;19935;-59
2023/11/26 02:54:57;;;;;;;;;;;;;;;;;;5097438;28;19982;-59
2023/11/26 02:57:24;;;;;;;;;;;;;;;;;;5097926;28;19989;-59
2023/11/26 02:59:52;;;;;;;;;;;;;;;;;;5097702;28;19931;-58
2023/11/26 03:02:19;;;;;;;;;;;;;;;;;;5077915;28;19971;-59
2023/11/26 03:04:51;;;;;;;;;;;;;;;;;;5077933;28;19944;-61
2023/11/26 03:07:20;;;;;;;;;;;;;;;;;;5081495;28;19925;-59
2023/11/26 03:15:24;;;;;;;;;;;;;;;;;;5041997;28;19940;-60
2023/11/26 03:17:51;;;;;;;;;;;;;;;;;;5066670;28;20015;-60
2023/11/26 03:20:19;;;;;;;;;;;;;;;;;;5080643;28;19978;-60
2023/11/26 03:22:45;;;;;;;;;;;;;;;;;;5097740;28;20000;-60
2023/11/26 03:25:13;;;;;;;;;;;;;;;;;;5097478;28;20007;-60
2023/11/26 03:27:39;;;;;;;;;;;;;;;;;;5096743;28;19958;-59
2023/11/26 03:30:09;;;;;;;;;;;;;;;;;;5097566;28;19924;-60
2023/11/26 03:32:38;;;;;;;;;;;;;;;;;;5097936;28;19973;-60
2023/11/26 03:35:05;;;;;;;;;;;;;;;;;;5097539;28;19931;-60
2023/11/26 03:37:31;;;;;;;;;;;;;;;;;;5097001;28;19975;-59
2023/11/26 03:39:57;;;;;;;;;;;;;;;;;;5096698;28;19967;-60
2023/11/26 03:42:24;;;;;;;;;;;;;;;;;;5096634;28;19981;-60
2023/11/26 03:44:51;;;;;;;;;;;;;;;;;;5095597;28;20371;-61
2023/11/26 03:47:18;;;;;;;;;;;;;;;;;;5096699;28;20395;-61
2023/11/26 03:49:46;;;;;;;;;;;;;;;;;;5097117;28;20342;-60
2023/11/26 03:52:13;;;;;;;;;;;;;;;;;;5096549;28;20357;-60
2023/11/26 03:54:39;;;;;;;;;;;;;;;;;;5096551;28;20033;-59
2023/11/26 03:57:06;;;;;;;;;;;;;;;;;;5086699;28;19967;-58
2023/11/26 03:59:32;;;;;;;;;;;;;;;;;;5080395;28;20395;-62
2023/11/26 04:01:59;;;;;;;;;;;;;;;;;;5095094;28;20423;-64
2023/11/26 04:04:25;;;;;;;;;;;;;;;;;;5085273;28;19924;-56
2023/11/26 04:06:53;;;;;;;;;;;;;;;;;;5097001;28;19971;-58
2023/11/26 04:09:19;;;;;;;;;;;;;;;;;;5097313;28;19974;-59
2023/11/26 04:11:46;;;;;;;;;;;;;;;;;;5092286;28;20455;-59
2023/11/26 04:14:13;;;;;;;;;;;;;;;;;;5078394;28;19974;-60
2023/11/26 04:16:48;;;;;;;;;;;;;;;;;;5097301;28;20387;-60
2023/11/26 04:19:15;;;;;;;;;;;;;;;;;;5096341;28;19979;-58
2023/11/26 04:21:43;;;;;;;;;;;;;;;;;;5096634;28;19967;-60
2023/11/26 04:24:11;;;;;;;;;;;;;;;;;;5096840;28;19975;-58
2023/11/26 04:26:37;;;;;;;;;;;;;;;;;;5097147;28;19977;-59
2023/11/26 04:29:04;;;;;;;;;;;;;;;;;;5097287;28;20417;-60
2023/11/26 04:31:30;;;;;;;;;;;;;;;;;;5097140;28;19978;-58
2023/11/26 04:33:57;;;;;;;;;;;;;;;;;;5096206;28;19925;-60
2023/11/26 04:36:23;;;;;;;;;;;;;;;;;;5097325;28;20360;-60
2023/11/26 04:38:51;;;;;;;;;;;;;;;;;;5096690;28;19983;-60
2023/11/26 04:41:20;;;;;;;;;;;;;;;;;;5096678;28;19924;-61
2023/11/26 04:43:46;;;;;;;;;;;;;;;;;;5096209;28;20003;-61
2023/11/26 04:46:14;;;;;;;;;;;;;;;;;;5096167;28;19924;-60
2023/11/26 04:48:42;;;;;;;;;;;;;;;;;;5078247;28;20012;-60
2023/11/26 04:51:08;;;;;;;;;;;;;;;;;;5086019;28;19932;-60
2023/11/26 04:53:35;;;;;;;;;;;;;;;;;;5075890;28;19925;-61
2023/11/26 04:56:01;;;;;;;;;;;;;;;;;;5075369;28;20015;-60
2023/11/26 04:58:29;;;;;;;;;;;;;;;;;;5085782;28;19946;-60
2023/11/26 05:00:56;;;;;;;;;;;;;;;;;;5086908;28;20014;-59
2023/11/26 05:03:22;;;;;;;;;;;;;;;;;;5075895;28;20354;-60
2023/11/26 05:05:49;;;;;;;;;;;;;;;;;;5075986;28;19975;-60
2023/11/26 05:08:15;;;;;;;;;;;;;;;;;;5075888;28;19928;-59
2023/11/26 05:10:42;;;;;;;;;;;;;;;;;;5082925;28;20420;-59
2023/11/26 05:13:09;;;;;;;;;;;;;;;;;;5096139;28;19979;-60
2023/11/26 05:15:37;;;;;;;;;;;;;;;;;;5095527;28;19924;-58
2023/11/26 05:18:03;;;;;;;;;;;;;;;;;;5095769;28;20508;-60
2023/11/26 05:20:30;;;;;;;;;;;;;;;;;;5096239;28;19975;-60
2023/11/26 05:22:57;;;;;;;;;;;;;;;;;;5089842;28;19987;-60
2023/11/26 05:25:24;;;;;;;;;;;;;;;;;;5086211;28;19967;-59
2023/11/26 05:27:51;;;;;;;;;;;;;;;;;;5095065;28;20022;-61
2023/11/26 05:30:17;;;;;;;;;;;;;;;;;;5089023;28;19982;-60
2023/11/26 05:32:45;;;;;;;;;;;;;;;;;;5082787;28;20544;-60
2023/11/26 05:35:13;;;;;;;;;;;;;;;;;;5095474;28;19982;-59
2023/11/26 05:37:40;;;;;;;;;;;;;;;;;;5095549;28;20007;-57
2023/11/26 05:40:08;;;;;;;;;;;;;;;;;;5095440;28;19924;-60
2023/11/26 05:42:34;;;;;;;;;;;;;;;;;;5095350;28;19924;-60
2023/11/26 05:45:01;;;;;;;;;;;;;;;;;;5095187;28;19968;-60
2023/11/26 05:47:27;;;;;;;;;;;;;;;;;;5094440;28;19924;-59
2023/11/26 05:49:55;;;;;;;;;;;;;;;;;;5095154;28;19974;-60
2023/11/26 05:52:22;;;;;;;;;;;;;;;;;;5090717;28;19963;-59
2023/11/26 05:54:48;;;;;;;;;;;;;;;;;;5074296;28;19925;-59
2023/11/26 05:57:15;;;;;;;;;;;;;;;;;;5092280;28;19967;-60
2023/11/26 05:59:41;;;;;;;;;;;;;;;;;;5095914;28;19924;-59
2023/11/26 06:02:08;;;;;;;;;;;;;;;;;;5095313;28;19955;-60
2023/11/26 06:04:35;;;;;;;;;;;;;;;;;;5094690;28;19924;-60
2023/11/26 06:07:03;;;;;;;;;;;;;;;;;;5095482;28;19959;-61
2023/11/26 06:09:30;;;;;;;;;;;;;;;;;;5094901;28;19950;-60
2023/11/26 06:11:57;;;;;;;;;;;;;;;;;;5095081;28;20220;-60
2023/11/26 06:14:23;;;;;;;;;;;;;;;;;;5094782;28;19924;-58
2023/11/26 06:16:50;;;;;;;;;;;;;;;;;;5095508;28;19967;-61
2023/11/26 06:19:17;;;;;;;;;;;;;;;;;;5075790;28;19952;-61
2023/11/26 06:21:43;;;;;;;;;;;;;;;;;;5075071;28;19924;-60
2023/11/26 06:24:12;;;;;;;;;;;;;;;;;;5077354;28;19971;-61
2023/11/26 06:26:40;;;;;;;;;;;;;;;;;;5075931;28;20392;-59
2023/11/26 06:29:07;;;;;;;;;;;;;;;;;;5094962;28;19925;-60
2023/11/26 06:31:34;;;;;;;;;;;;;;;;;;5095702;28;19924;-61
2023/11/26 06:34:01;;;;;;;;;;;;;;;;;;5095133;28;20019;-62
2023/11/26 06:36:28;;;;;;;;;;;;;;;;;;5095273;28;19924;-62
2023/11/26 06:38:55;;;;;;;;;;;;;;;;;;5095070;28;20341;-61
2023/11/26 06:41:24;;;;;;;;;;;;;;;;;;5095080;28;19924;-61
2023/11/26 06:43:51;;;;;;;;;;;;;;;;;;5095541;28;19928;-60
2023/11/26 06:46:18;;;;;;;;;;;;;;;;;;5094629;28;19931;-60
2023/11/26 06:48:45;;;;;;;;;;;;;;;;;;5085244;28;19932;-60
2023/11/26 06:51:11;;;;;;;;;;;;;;;;;;5074540;28;19976;-59
2023/11/26 06:53:38;;;;;;;;;;;;;;;;;;5082131;28;19925;-59
2023/11/26 06:56:05;;;;;;;;;;;;;;;;;;5084294;28;19925;-60
2023/11/26 06:58:33;;;;;;;;;;;;;;;;;;5094273;28;19928;-61
2023/11/26 07:01:00;;;;;;;;;;;;;;;;;;5094781;28;20015;-60
2023/11/26 07:03:26;;;;;;;;;;;;;;;;;;5093987;28;19960;-61
2023/11/26 07:05:53;;;;;;;;;;;;;;;;;;5093588;28;19963;-60
2023/11/26 07:08:19;;;;;;;;;;;;;;;;;;5073492;28;19924;-59
2023/11/26 07:10:46;;;;;;;;;;;;;;;;;;5074284;28;19991;-61
2023/11/26 07:13:15;;;;;;;;;;;;;;;;;;5074072;28;20352;-60
2023/11/26 07:15:43;;;;;;;;;;;;;;;;;;5073935;28;19935;-61
2023/11/26 07:18:09;;;;;;;;;;;;;;;;;;5090590;28;19969;-61
2023/11/26 07:20:37;;;;;;;;;;;;;;;;;;5086847;28;19924;-60
2023/11/26 07:23:03;;;;;;;;;;;;;;;;;;5077426;28;20003;-61
2023/11/26 07:25:30;;;;;;;;;;;;;;;;;;5077617;28;19995;-61
2023/11/26 07:27:57;;;;;;;;;;;;;;;;;;5078340;28;19925;-60
2023/11/26 07:30:24;;;;;;;;;;;;;;;;;;5089854;28;19924;-60
2023/11/26 07:32:51;;;;;;;;;;;;;;;;;;5097703;28;19947;-60
2023/11/26 07:35:19;;;;;;;;;;;;;;;;;;5088650;28;19967;-60
2023/11/26 07:37:45;;;;;;;;;;;;;;;;;;5097551;28;20468;-61
2023/11/26 07:40:14;;;;;;;;;;;;;;;;;;5091192;28;19935;-59
2023/11/26 07:42:41;;;;;;;;;;;;;;;;;;5096401;28;19924;-60
2023/11/26 07:45:08;;;;;;;;;;;;;;;;;;5094427;28;20298;-61
2023/11/26 07:47:34;;;;;;;;;;;;;;;;;;5077357;28;19971;-60
2023/11/26 07:50:02;;;;;;;;;;;;;;;;;;5086079;28;19924;-60
2023/11/26 07:52:29;;;;;;;;;;;;;;;;;;5096891;28;19950;-60
2023/11/26 07:54:55;;;;;;;;;;;;;;;;;;5097009;28;19924;-60
2023/11/26 07:57:22;;;;;;;;;;;;;;;;;;5096695;28;19928;-61
2023/11/26 07:59:49;;;;;;;;;;;;;;;;;;5097111;28;19923;-61
2023/11/26 08:02:15;;;;;;;;;;;;;;;;;;5096463;28;19980;-61
2023/11/26 08:04:44;;;;;;;;;;;;;;;;;;5093719;28;20384;-60
2023/11/26 08:07:12;;;;;;;;;;;;;;;;;;5083841;28;19928;-60
2023/11/26 08:09:38;;;;;;;;;;;;;;;;;;5096932;28;19924;-61
2023/11/26 08:12:10;;;;;;;;;;;;;;;;;;5096972;28;19924;-60
2023/11/26 08:14:36;;;;;;;;;;;;;;;;;;5096431;28;19931;-60
2023/11/26 08:17:05;;;;;;;;;;;;;;;;;;5096414;28;20019;-60
2023/11/26 08:19:31;;;;;;;;;;;;;;;;;;5096596;28;20353;-60
2023/11/26 08:21:58;;;;;;;;;;;;;;;;;;5096874;28;19955;-59
2023/11/26 08:24:26;;;;;;;;;;;;;;;;;;5096294;28;19959;-61
2023/11/26 08:26:54;;;;;;;;;;;;;;;;;;5096885;28;19932;-60
2023/11/26 08:29:21;;;;;;;;;;;;;;;;;;5096471;28;19924;-60
2023/11/26 08:31:48;;;;;;;;;;;;;;;;;;5090368;28;19924;-61
2023/11/26 08:34:15;;;;;;;;;;;;;;;;;;5087536;28;19924;-60
2023/11/26 08:36:42;;;;;;;;;;;;;;;;;;5096578;28;19924;-60
2023/11/26 08:39:18;;;;;;;;;;;;;;;;;;5097242;28;20389;-61
2023/11/26 08:41:46;;;;;;;;;;;;;;;;;;5096310;28;19950;-61
2023/11/26 08:44:13;;;;;;;;;;;;;;;;;;5096653;28;20349;-61
2023/11/26 08:46:41;;;;;;;;;;;;;;;;;;5096488;28;19924;-60
2023/11/26 08:49:08;;;;;;;;;;;;;;;;;;5096165;28;19963;-61
2023/11/26 08:51:36;;;;;;;;;;;;;;;;;;5095857;28;19981;-58
2023/11/26 08:54:03;;;;;;;;;;;;;;;;;;5095955;28;19936;-61
2023/11/26 08:56:30;;;;;;;;;;;;;;;;;;5096049;28;20015;-60
2023/11/26 08:58:57;;;;;;;;;;;;;;;;;;5096187;28;19924;-61
2023/11/26 09:01:24;;;;;;;;;;;;;;;;;;5095195;28;19971;-60
2023/11/26 09:03:50;;;;;;;;;;;;;;;;;;5095941;28;20340;-61
2023/11/26 09:06:18;;;;;;;;;;;;;;;;;;5096406;28;19924;-61
2023/11/26 09:08:49;;;;;;;;;;;;;;;;;;5095474;28;19924;-60
2023/11/26 09:11:14;;;;;;;;;;;;;;;;;;5095304;28;19964;-59
2023/11/26 09:13:41;;;;;;;;;;;;;;;;;;5095153;28;19936;-61
2023/11/26 09:16:09;;;;;;;;;;;;;;;;;;5095569;28;19928;-61
2023/11/26 09:18:37;;;;;;;;;;;;;;;;;;5095662;28;19971;-59
2023/11/26 09:21:03;;;;;;;;;;;;;;;;;;5095065;28;19928;-59
2023/11/26 09:23:32;;;;;;;;;;;;;;;;;;5095562;28;19966;-59
2023/11/26 09:25:59;;;;;;;;;;;;;;;;;;5095511;28;19928;-60
2023/11/26 09:28:25;;;;;;;;;;;;;;;;;;5094252;28;19971;-60
2023/11/26 09:30:52;;;;;;;;;;;;;;;;;;5076564;28;19978;-60
2023/11/26 09:33:19;;;;;;;;;;;;;;;;;;5091006;28;19970;-61
2023/11/26 09:35:46;;;;;;;;;;;;;;;;;;5093167;28;20218;-63
2023/11/26 09:38:13;;;;;;;;;;;;;;;;;;5096293;28;19982;-59
2023/11/26 09:40:40;;;;;;;;;;;;;;;;;;5098984;28;20312;-59
2023/11/26 09:43:07;;;;;;;;;;;;;;;;;;5097877;28;19967;-59
2023/11/26 09:45:34;;;;;;;;;;;;;;;;;;5098847;28;19959;-59
2023/11/26 09:48:00;;;;;;;;;;;;;;;;;;5080473;28;20357;-59
2023/11/26 09:50:29;;;;;;;;;;;;;;;;;;5078096;28;19971;-59
2023/11/26 09:52:56;;;;;;;;;;;;;;;;;;5090268;28;19924;-59
2023/11/26 09:55:23;;;;;;;;;;;;;;;;;;5098363;28;19963;-60
2023/11/26 09:57:49;;;;;;;;;;;;;;;;;;5098202;28;19924;-60
2023/11/26 10:00:16;;;;;;;;;;;;;;;;;;5098776;28;19970;-60
2023/11/26 10:02:43;;;;;;;;;;;;;;;;;;5090532;28;20006;-60
2023/11/26 10:05:22;;;;;;;;;;;;;;;;;;5097672;28;19928;-60
2023/11/26 10:07:52;;;;;;;;;;;;;;;;;;5098992;28;19924;-60
2023/11/26 10:10:19;;;;;;;;;;;;;;;;;;5098074;28;20002;-59
2023/11/26 10:12:52;;;;;;;;;;;;;;;;;;5098637;28;20049;-60
2023/11/26 10:15:20;;;;;;;;;;;;;;;;;;5098322;28;19978;-60
2023/11/26 10:17:58;;;;;;;;;;;;;;;;;;5097356;28;19931;-59
2023/11/26 10:20:25;;;;;;;;;;;;;;;;;;5097624;28;19979;-60
2023/11/26 10:22:53;;;;;;;;;;;;;;;;;;5097406;28;19924;-59
2023/11/26 10:25:20;;;;;;;;;;;;;;;;;;5096487;28;19978;-60
2023/11/26 10:27:47;;;;;;;;;;;;;;;;;;5096161;28;19971;-60
2023/11/26 10:30:23;;;;;;;;;;;;;;;;;;5097659;28;19928;-59
2023/11/26 10:32:55;;;;;;;;;;;;;;;;;;5097020;28;20423;-59
2023/11/26 10:35:21;;;;;;;;;;;;;;;;;;5096932;28;19956;-61
2023/11/26 10:37:48;;;;;;;;;;;;;;;;;;5097120;28;19968;-59
2023/11/26 10:40:16;;;;;;;;;;;;;;;;;;5096683;28;19967;-59
2023/11/26 10:42:43;;;;;;;;;;;;;;;;;;5096278;28;19972;-60
2023/11/26 10:45:11;;;;;;;;;;;;;;;;;;5096465;28;19966;-60
2023/11/26 10:47:40;;;;;;;;;;;;;;;;;;5097060;28;19924;-59
2023/11/26 10:50:09;;;;;;;;;;;;;;;;;;5096792;28;19977;-58
2023/11/26 10:52:40;;;;;;;;;;;;;;;;;;5082218;28;19978;-59
2023/11/26 10:55:08;;;;;;;;;;;;;;;;;;5080337;28;20039;-61
2023/11/26 10:57:40;;;;;;;;;;;;;;;;;;5102115;28;19946;-59
2023/11/26 11:00:08;;;;;;;;;;;;;;;;;;5100518;28;19931;-59
2023/11/26 11:02:36;;;;;;;;;;;;;;;;;;5099153;28;19975;-59
2023/11/26 11:05:05;;;;;;;;;;;;;;;;;;5099475;28;19924;-59
2023/11/26 11:07:33;;;;;;;;;;;;;;;;;;5100067;28;19937;-58
2023/11/26 11:10:06;;;;;;;;;;;;;;;;;;5100255;28;19924;-59
2023/11/26 11:12:39;;;;;;;;;;;;;;;;;;5099828;28;19950;-59
2023/11/26 11:15:08;;;;;;;;;;;;;;;;;;5099999;28;20344;-60
2023/11/26 11:17:34;;;;;;;;;;;;;;;;;;5100175;28;19943;-59
2023/11/26 11:20:02;;;;;;;;;;;;;;;;;;5099737;28;20341;-59
2023/11/26 11:22:35;;;;;;;;;;;;;;;;;;5099470;28;20383;-59
2023/11/26 11:25:09;;;;;;;;;;;;;;;;;;5093032;28;19924;-62
2023/11/26 11:27:49;;;;;;;;;;;;;;;;;;5085468;28;20363;-61
2023/11/26 11:30:30;;;;;;;;;;;;;;;;;;5094357;28;20419;-64
2023/11/26 11:33:05;;;;;;;;;;;;;;;;;;5080065;28;20513;-66
2023/11/26 11:35:40;;;;;;;;;;;;;;;;;;5085286;28;19969;-62
2023/11/26 11:38:08;;;;;;;;;;;;;;;;;;5083738;28;19938;-58
2023/11/26 11:40:55;;;;;;;;;;;;;;;;;;5077407;28;19932;-60
2023/11/26 11:43:22;;;;;;;;;;;;;;;;;;5076991;28;20307;-66
2023/11/26 11:45:49;;;;;;;;;;;;;;;;;;5096573;28;19971;-60
2023/11/26 11:48:30;;;;;;;;;;;;;;;;;;5096876;28;20367;-59
2023/11/26 11:50:58;;;;;;;;;;;;;;;;;;5080715;28;19924;-60
2023/11/26 11:53:24;;;;;;;;;;;;;;;;;;5098716;28;20054;-60
2023/11/26 11:55:57;;;;;;;;;;;;;;;;;;5097024;28;19924;-60
2023/11/26 11:58:24;;;;;;;;;;;;;;;;;;5079495;28;19964;-60
2023/11/26 12:00:56;;;;;;;;;;;;;;;;;;5082710;28;20298;-60
2023/11/26 12:03:23;;;;;;;;;;;;;;;;;;5094449;28;19924;-59
2023/11/26 12:05:51;;;;;;;;;;;;;;;;;;5086730;28;19925;-58
2023/11/26 12:08:18;;;;;;;;;;;;;;;;;;5096812;28;19924;-58
2023/11/26 12:10:45;;;;;;;;;;;;;;;;;;5101009;28;19982;-59
2023/11/26 12:13:11;;;;;;;;;;;;;;;;;;5088130;28;19976;-58
2023/11/26 12:15:39;;;;;;;;;;;;;;;;;;5083726;28;19971;-58
2023/11/26 12:18:06;;;;;;;;;;;;;;;;;;5093356;28;19947;-60
2023/11/26 12:20:33;;;;;;;;;;;;;;;;;;5091825;28;20004;-59
2023/11/26 12:22:59;;;;;;;;;;;;;;;;;;5088719;28;19925;-60
2023/11/26 12:25:28;;;;;;;;;;;;;;;;;;5081237;28;20273;-59
2023/11/26 12:28:04;;;;;;;;;;;;;;;;;;5099928;28;19928;-59
2023/11/26 12:30:30;;;;;;;;;;;;;;;;;;5095621;28;19979;-59
2023/11/26 12:32:57;;;;;;;;;;;;;;;;;;5093133;28;19928;-59
2023/11/26 12:35:27;;;;;;;;;;;;;;;;;;5088492;28;19924;-57
2023/11/26 12:37:54;;;;;;;;;;;;;;;;;;5095688;28;19931;-59
2023/11/26 12:40:20;;;;;;;;;;;;;;;;;;5087472;28;19928;-59
2023/11/26 12:42:49;;;;;;;;;;;;;;;;;;5091607;28;20011;-59
2023/11/26 12:45:17;;;;;;;;;;;;;;;;;;5092716;28;19977;-60
2023/11/26 12:47:51;;;;;;;;;;;;;;;;;;5097406;28;19935;-59
2023/11/26 12:50:17;;;;;;;;;;;;;;;;;;5102012;28;19925;-59
2023/11/26 12:52:44;;;;;;;;;;;;;;;;;;5097561;28;19975;-60
2023/11/26 12:55:11;;;;;;;;;;;;;;;;;;5089846;28;19924;-60
2023/11/26 12:57:38;;;;;;;;;;;;;;;;;;5101575;28;19975;-59
2023/11/26 13:00:10;;;;;;;;;;;;;;;;;;5101548;28;19991;-57
2023/11/26 13:02:37;;;;;;;;;;;;;;;;;;5090668;28;19934;-59
2023/11/26 13:05:23;;;;;;;;;;;;;;;;;;5100930;28;19924;-58
2023/11/26 13:07:49;;;;;;;;;;;;;;;;;;5098496;28;19963;-60
2023/11/26 13:10:16;;;;;;;;;;;;;;;;;;5087458;28;20387;-59
2023/11/26 13:12:43;;;;;;;;;;;;;;;;;;5094338;28;19955;-60
2023/11/26 13:15:14;;;;;;;;;;;;;;;;;;5098278;28;20275;-62
2023/11/26 13:17:41;;;;;;;;;;;;;;;;;;5099097;28;19924;-60
2023/11/26 13:20:13;;;;;;;;;;;;;;;;;;5099175;28;20348;-61
2023/11/26 13:22:39;;;;;;;;;;;;;;;;;;5099074;28;19973;-60
2023/11/26 13:25:06;;;;;;;;;;;;;;;;;;5085357;28;19932;-56
2023/11/26 13:27:33;;;;;;;;;;;;;;;;;;5090298;28;19924;-55
2023/11/26 13:29:59;;;;;;;;;;;;;;;;;;5080749;28;20012;-56
2023/11/26 13:32:27;;;;;;;;;;;;;;;;;;5089553;28;19971;-53
2023/11/26 13:34:55;;;;;;;;;;;;;;;;;;5093715;28;19924;-58
2023/11/26 13:37:21;;;;;;;;;;;;;;;;;;5082358;28;19924;-54
2023/11/26 13:39:47;;;;;;;;;;;;;;;;;;5093147;28;19974;-57
2023/11/26 13:42:14;;;;;;;;;;;;;;;;;;5080271;28;20011;-54
2023/11/26 13:44:40;;;;;;;;;;;;;;;;;;5072731;28;20061;-53
2023/11/26 13:47:07;;;;;;;;;;;;;;;;;;5073252;28;19994;-55
2023/11/26 13:49:35;;;;;;;;;;;;;;;;;;5073282;28;19968;-55
2023/11/26 13:52:02;;;;;;;;;;;;;;;;;;5072746;28;20024;-56
2023/11/26 13:54:28;;;;;;;;;;;;;;;;;;5077615;28;19931;-55
2023/11/26 13:56:55;;;;;;;;;;;;;;;;;;5093144;28;20007;-53
2023/11/26 13:59:21;;;;;;;;;;;;;;;;;;5093119;28;19959;-55
2023/11/26 14:01:48;;;;;;;;;;;;;;;;;;5093176;28;19970;-54
2023/11/26 14:04:14;;;;;;;;;;;;;;;;;;5092972;28;20003;-53
2023/11/26 14:06:42;;;;;;;;;;;;;;;;;;5092978;28;19983;-56
2023/11/26 14:09:11;;;;;;;;;;;;;;;;;;5093375;28;19924;-53
2023/11/26 14:11:38;;;;;;;;;;;;;;;;;;5093245;28;20275;-52
2023/11/26 14:14:04;;;;;;;;;;;;;;;;;;5083159;28;19970;-55
2023/11/26 14:16:31;;;;;;;;;;;;;;;;;;5072556;28;20014;-53
2023/11/26 14:18:57;;;;;;;;;;;;;;;;;;5072540;28;20012;-55
2023/11/26 14:21:25;;;;;;;;;;;;;;;;;;5072455;28;19970;-53
2023/11/26 14:23:53;;;;;;;;;;;;;;;;;;5072783;28;20376;-54
2023/11/26 14:26:20;;;;;;;;;;;;;;;;;;5072650;28;19924;-54
2023/11/26 14:28:46;;;;;;;;;;;;;;;;;;5073426;28;19928;-55
2023/11/26 14:31:13;;;;;;;;;;;;;;;;;;5076506;28;20517;-55
2023/11/26 14:33:39;;;;;;;;;;;;;;;;;;5076593;28;19979;-54
2023/11/26 14:36:06;;;;;;;;;;;;;;;;;;5086586;28;19975;-53
2023/11/26 14:38:33;;;;;;;;;;;;;;;;;;5096308;28;19924;-55
2023/11/26 14:41:00;;;;;;;;;;;;;;;;;;5096899;28;20426;-54
2023/11/26 14:43:27;;;;;;;;;;;;;;;;;;5096541;28;19924;-53
2023/11/26 14:45:54;;;;;;;;;;;;;;;;;;5096487;28;20549;-52
2023/11/26 14:48:21;;;;;;;;;;;;;;;;;;5096817;28;20007;-54
2023/11/26 14:50:48;;;;;;;;;;;;;;;;;;5096718;28;20292;-54
2023/11/26 14:53:14;;;;;;;;;;;;;;;;;;5096440;28;19943;-56
2023/11/26 14:55:41;;;;;;;;;;;;;;;;;;5096394;28;20272;-53
2023/11/26 14:58:09;;;;;;;;;;;;;;;;;;5096071;28;19964;-52
2023/11/26 15:00:35;;;;;;;;;;;;;;;;;;5096426;28;20035;-54
2023/11/26 15:03:02;;;;;;;;;;;;;;;;;;5096105;28;20014;-54
2023/11/26 15:05:28;;;;;;;;;;;;;;;;;;5096132;28;19955;-55
2023/11/26 15:07:55;;;;;;;;;;;;;;;;;;5095888;28;20402;-56
2023/11/26 15:10:21;;;;;;;;;;;;;;;;;;5096048;28;20356;-57
2023/11/26 15:12:48;;;;;;;;;;;;;;;;;;5095997;28;20137;-54
2023/11/26 15:15:15;;;;;;;;;;;;;;;;;;5096187;28;20015;-53
2023/11/26 15:17:42;;;;;;;;;;;;;;;;;;5095534;28;20018;-54
2023/11/26 15:20:11;;;;;;;;;;;;;;;;;;5095902;28;19932;-56
2023/11/26 15:22:39;;;;;;;;;;;;;;;;;;5089827;28;19947;-52
2023/11/26 15:25:06;;;;;;;;;;;;;;;;;;5075307;28;19931;-57
2023/11/26 15:27:33;;;;;;;;;;;;;;;;;;5089595;28;19924;-57
2023/11/26 15:29:59;;;;;;;;;;;;;;;;;;5095446;28;20015;-54
2023/11/26 15:32:28;;;;;;;;;;;;;;;;;;5095833;28;20352;-56
2023/11/26 15:34:55;;;;;;;;;;;;;;;;;;5095414;28;19924;-53
2023/11/26 15:37:22;;;;;;;;;;;;;;;;;;5095393;28;19931;-53
2023/11/26 15:39:51;;;;;;;;;;;;;;;;;;5095283;28;20023;-53
2023/11/26 15:42:17;;;;;;;;;;;;;;;;;;5095019;28;20006;-56
2023/11/26 15:44:44;;;;;;;;;;;;;;;;;;5080234;28;19966;-52
2023/11/26 15:47:11;;;;;;;;;;;;;;;;;;5083501;28;19991;-56
2023/11/26 15:49:39;;;;;;;;;;;;;;;;;;5074817;28;20043;-54
2023/11/26 15:52:06;;;;;;;;;;;;;;;;;;5093352;28;20353;-55
2023/11/26 15:54:33;;;;;;;;;;;;;;;;;;5095256;28;20019;-54
2023/11/26 15:56:59;;;;;;;;;;;;;;;;;;5094991;28;19931;-55
2023/11/26 15:59:26;;;;;;;;;;;;;;;;;;5095007;28;20020;-56
2023/11/26 16:01:52;;;;;;;;;;;;;;;;;;5079113;28;20352;-54
2023/11/26 16:04:19;;;;;;;;;;;;;;;;;;5094755;28;20276;-53
2023/11/26 16:06:46;;;;;;;;;;;;;;;;;;5095306;28;19954;-55
2023/11/26 16:09:13;;;;;;;;;;;;;;;;;;5075759;28;20007;-53
2023/11/26 16:11:41;;;;;;;;;;;;;;;;;;5081532;28;20382;-55
2023/11/26 16:14:07;;;;;;;;;;;;;;;;;;5094739;28;19940;-54
2023/11/26 16:16:35;;;;;;;;;;;;;;;;;;5095308;28;19969;-56
2023/11/26 16:19:03;;;;;;;;;;;;;;;;;;5094853;28;20405;-54
2023/11/26 16:21:29;;;;;;;;;;;;;;;;;;5094791;28;19924;-56
2023/11/26 16:23:58;;;;;;;;;;;;;;;;;;5095153;28;20548;-56
2023/11/26 16:26:24;;;;;;;;;;;;;;;;;;5095162;28;19924;-57
2023/11/26 16:28:51;;;;;;;;;;;;;;;;;;5078351;28;20007;-59
2023/11/26 16:31:17;;;;;;;;;;;;;;;;;;5077478;28;20008;-53
2023/11/26 16:33:48;;;;;;;;;;;;;;;;;;5094796;28;20026;-55
2023/11/26 16:36:15;;;;;;;;;;;;;;;;;;5077610;28;19975;-54
2023/11/26 16:38:41;;;;;;;;;;;;;;;;;;5094774;28;19924;-53
2023/11/26 16:41:12;;;;;;;;;;;;;;;;;;5093206;28;19935;-53
2023/11/26 16:43:38;;;;;;;;;;;;;;;;;;5089049;28;20302;-57
2023/11/26 16:46:08;;;;;;;;;;;;;;;;;;5085056;28;20023;-54
2023/11/26 16:48:35;;;;;;;;;;;;;;;;;;5079217;28;20344;-52
2023/11/26 16:51:01;;;;;;;;;;;;;;;;;;5093374;28;19966;-54
2023/11/26 16:53:29;;;;;;;;;;;;;;;;;;5078677;28;19979;-57